sensor_id;sensor_type;location;lat;lon;timestamp;pressure;altitude;pressure_sealevel;temperature;humidity
16821;BME280;8527;49.740;6.604;2023-05-25T00:01:27;100394.56;;;10.08;78.13
16821;BME280;8527;49.740;6.604;2023-05-25T00:06:29;100395.38;;;10.09;79.51
16821;BME280;8527;49.740;6.604;2023-05-25T00:11:30;100387.81;;;10.14;78.96
16821;BME280;8527;49.740;6.604;2023-05-25T00:16:31;100397.13;;;10.18;78.46
16821;BME280;8527;49.740;6.604;2023-05-25T00:21:35;100395.97;;;10.03;78.47
16821;BME280;8527;49.740;6.604;2023-05-25T00:26:34;100393.66;;;9.90;78.78
16821;BME280;8527;49.740;6.604;2023-05-25T00:31:39;100397.78;;;9.74;80.98
16821;BME280;8527;49.740;6.604;2023-05-25T00:36:43;100399.22;;;9.68;79.25
16821;BME280;8527;49.740;6.604;2023-05-25T00:41:46;100385.66;;;9.71;80.37
16821;BME280;8527;49.740;6.604;2023-05-25T00:46:50;100397.31;;;9.61;81.09
16821;BME280;8527;49.740;6.604;2023-05-25T00:51:50;100399.78;;;9.24;81.80
16821;BME280;8527;49.740;6.604;2023-05-25T00:56:51;100396.16;;;9.25;82.29
16821;BME280;8527;49.740;6.604;2023-05-25T01:01:54;100396.84;;;9.27;82.44
16821;BME280;8527;49.740;6.604;2023-05-25T01:06:56;100381.63;;;9.39;84.17
16821;BME280;8527;49.740;6.604;2023-05-25T01:11:57;100372.28;;;9.35;83.34
16821;BME280;8527;49.740;6.604;2023-05-25T01:17:00;100373.72;;;9.29;82.81
16821;BME280;8527;49.740;6.604;2023-05-25T01:22:04;100367.03;;;9.25;81.42
16821;BME280;8527;49.740;6.604;2023-05-25T01:27:11;100379.19;;;9.18;82.38
16821;BME280;8527;49.740;6.604;2023-05-25T01:32:12;100383.53;;;9.09;81.65
16821;BME280;8527;49.740;6.604;2023-05-25T01:37:18;100384.41;;;9.00;83.41
16821;BME280;8527;49.740;6.604;2023-05-25T01:42:18;100379.38;;;8.97;83.44
16821;BME280;8527;49.740;6.604;2023-05-25T01:47:22;100381.06;;;8.88;82.46
16821;BME280;8527;49.740;6.604;2023-05-25T01:52:27;100384.41;;;8.90;83.11
16821;BME280;8527;49.740;6.604;2023-05-25T01:57:36;100387.22;;;8.79;84.73
16821;BME280;8527;49.740;6.604;2023-05-25T02:02:43;100388.88;;;8.60;84.53
16821;BME280;8527;49.740;6.604;2023-05-25T02:07:47;100394.59;;;8.65;84.03
16821;BME280;8527;49.740;6.604;2023-05-25T02:12:49;100384.56;;;8.59;86.14
16821;BME280;8527;49.740;6.604;2023-05-25T02:17:54;100387.06;;;8.31;85.75
16821;BME280;8527;49.740;6.604;2023-05-25T02:22:58;100389.03;;;8.58;86.38
16821;BME280;8527;49.740;6.604;2023-05-25T02:27:57;100389.19;;;8.57;87.11
16821;BME280;8527;49.740;6.604;2023-05-25T02:32:58;100389.03;;;8.58;87.19
16821;BME280;8527;49.740;6.604;2023-05-25T02:38:02;100391.25;;;8.53;86.92
16821;BME280;8527;49.740;6.604;2023-05-25T02:43:07;100392.75;;;8.46;87.35
16821;BME280;8527;49.740;6.604;2023-05-25T02:48:06;100386.34;;;8.49;86.57
16821;BME280;8527;49.740;6.604;2023-05-25T02:53:10;100399.16;;;8.43;86.63
16821;BME280;8527;49.740;6.604;2023-05-25T02:58:08;100402.22;;;8.39;87.43
16821;BME280;8527;49.740;6.604;2023-05-25T03:03:12;100387.19;;;8.39;87.72
16821;BME280;8527;49.740;6.604;2023-05-25T03:08:13;100397.91;;;8.28;87.01
16821;BME280;8527;49.740;6.604;2023-05-25T03:13:12;100402.47;;;8.16;86.65
16821;BME280;8527;49.740;6.604;2023-05-25T03:18:16;100407.75;;;8.06;86.39
16821;BME280;8527;49.740;6.604;2023-05-25T03:23:21;100406.88;;;7.96;87.06
16821;BME280;8527;49.740;6.604;2023-05-25T03:28:22;100404.25;;;8.06;87.70
16821;BME280;8527;49.740;6.604;2023-05-25T03:33:24;100412.16;;;8.06;88.45
16821;BME280;8527;49.740;6.604;2023-05-25T03:38:28;100417.03;;;8.00;87.08
16821;BME280;8527;49.740;6.604;2023-05-25T03:43:26;100420.50;;;8.01;88.01
16821;BME280;8527;49.740;6.604;2023-05-25T03:48:25;100417.72;;;7.93;88.00
16821;BME280;8527;49.740;6.604;2023-05-25T03:53:31;100413.94;;;7.95;89.48
16821;BME280;8527;49.740;6.604;2023-05-25T03:58:31;100421.84;;;7.85;90.46
16821;BME280;8527;49.740;6.604;2023-05-25T04:03:39;100427.44;;;7.92;89.97
16821;BME280;8527;49.740;6.604;2023-05-25T04:08:39;100428.00;;;7.96;88.89
16821;BME280;8527;49.740;6.604;2023-05-25T04:13:42;100439.44;;;8.06;90.00
16821;BME280;8527;49.740;6.604;2023-05-25T04:18:41;100437.66;;;8.16;89.74
16821;BME280;8527;49.740;6.604;2023-05-25T04:23:48;100449.25;;;8.35;89.49
16821;BME280;8527;49.740;6.604;2023-05-25T04:28:47;100440.34;;;8.46;88.43
16821;BME280;8527;49.740;6.604;2023-05-25T04:33:51;100447.06;;;8.50;89.81
16821;BME280;8527;49.740;6.604;2023-05-25T04:38:53;100453.06;;;8.72;90.44
16821;BME280;8527;49.740;6.604;2023-05-25T04:43:51;100460.84;;;8.83;89.34
16821;BME280;8527;49.740;6.604;2023-05-25T04:48:53;100461.63;;;9.33;88.84
16821;BME280;8527;49.740;6.604;2023-05-25T04:53:54;100475.94;;;9.60;88.07
16821;BME280;8527;49.740;6.604;2023-05-25T04:58:55;100481.69;;;9.93;86.34
16821;BME280;8527;49.740;6.604;2023-05-25T05:03:59;100494.50;;;10.26;84.49
16821;BME280;8527;49.740;6.604;2023-05-25T05:09:00;100489.13;;;10.46;83.27
16821;BME280;8527;49.740;6.604;2023-05-25T05:13:58;100498.22;;;10.61;82.65
16821;BME280;8527;49.740;6.604;2023-05-25T05:18:58;100516.13;;;10.59;81.98
16821;BME280;8527;49.740;6.604;2023-05-25T05:24:01;100520.22;;;10.72;81.92
16821;BME280;8527;49.740;6.604;2023-05-25T05:29:00;100517.81;;;10.78;81.25
16821;BME280;8527;49.740;6.604;2023-05-25T05:33:59;100506.53;;;10.94;80.43
16821;BME280;8527;49.740;6.604;2023-05-25T05:39:00;100529.69;;;10.92;79.72
16821;BME280;8527;49.740;6.604;2023-05-25T05:43:59;100525.38;;;11.28;80.01
16821;BME280;8527;49.740;6.604;2023-05-25T05:49:06;100523.56;;;11.28;79.03
16821;BME280;8527;49.740;6.604;2023-05-25T05:54:10;100522.31;;;11.67;77.85
16821;BME280;8527;49.740;6.604;2023-05-25T05:59:09;100534.91;;;11.57;78.17
16821;BME280;8527;49.740;6.604;2023-05-25T06:04:10;100536.63;;;12.01;76.79
16821;BME280;8527;49.740;6.604;2023-05-25T06:09:14;100537.63;;;12.26;75.65
16821;BME280;8527;49.740;6.604;2023-05-25T06:14:12;100548.06;;;12.19;75.17
16821;BME280;8527;49.740;6.604;2023-05-25T06:19:12;100552.66;;;12.44;74.20
16821;BME280;8527;49.740;6.604;2023-05-25T06:24:13;100553.97;;;12.40;74.28
16821;BME280;8527;49.740;6.604;2023-05-25T06:29:16;100552.91;;;12.75;73.45
16821;BME280;8527;49.740;6.604;2023-05-25T06:34:14;100545.38;;;12.54;73.86
16821;BME280;8527;49.740;6.604;2023-05-25T06:39:15;100555.88;;;12.56;73.69
16821;BME280;8527;49.740;6.604;2023-05-25T06:44:14;100558.88;;;12.61;73.27
16821;BME280;8527;49.740;6.604;2023-05-25T06:49:13;100550.78;;;12.95;72.82
16821;BME280;8527;49.740;6.604;2023-05-25T06:54:12;100558.25;;;12.84;72.51
16821;BME280;8527;49.740;6.604;2023-05-25T06:59:13;100558.47;;;13.15;71.33
16821;BME280;8527;49.740;6.604;2023-05-25T07:04:15;100550.19;;;13.60;69.91
16821;BME280;8527;49.740;6.604;2023-05-25T07:09:23;100539.78;;;13.90;69.50
16821;BME280;8527;49.740;6.604;2023-05-25T07:14:24;100544.16;;;13.41;70.88
16821;BME280;8527;49.740;6.604;2023-05-25T07:19:27;100537.69;;;14.17;69.56
16821;BME280;8527;49.740;6.604;2023-05-25T07:24:25;100536.47;;;15.38;65.31
16821;BME280;8527;49.740;6.604;2023-05-25T07:29:26;100543.72;;;14.82;65.01
16821;BME280;8527;49.740;6.604;2023-05-25T07:34:25;100542.78;;;14.35;65.96
16821;BME280;8527;49.740;6.604;2023-05-25T07:39:24;100541.53;;;14.86;65.71
16821;BME280;8527;49.740;6.604;2023-05-25T07:44:22;100549.91;;;14.43;65.70
16821;BME280;8527;49.740;6.604;2023-05-25T07:49:23;100553.09;;;14.78;65.75
16821;BME280;8527;49.740;6.604;2023-05-25T07:54:22;100544.00;;;15.34;63.97
16821;BME280;8527;49.740;6.604;2023-05-25T07:59:20;100556.56;;;15.33;63.17
16821;BME280;8527;49.740;6.604;2023-05-25T08:04:23;100542.84;;;16.05;61.51
16821;BME280;8527;49.740;6.604;2023-05-25T08:09:22;100536.16;;;15.86;60.71
16821;BME280;8527;49.740;6.604;2023-05-25T08:14:20;100539.34;;;16.05;59.98
16821;BME280;8527;49.740;6.604;2023-05-25T08:19:19;100533.66;;;16.44;58.50
16821;BME280;8527;49.740;6.604;2023-05-25T08:24:20;100547.53;;;16.33;57.38
16821;BME280;8527;49.740;6.604;2023-05-25T08:29:19;100541.66;;;15.93;58.61
16821;BME280;8527;49.740;6.604;2023-05-25T08:34:17;100544.91;;;16.92;56.03
16821;BME280;8527;49.740;6.604;2023-05-25T08:39:15;100554.03;;;16.97;55.96
16821;BME280;8527;49.740;6.604;2023-05-25T08:44:16;100559.00;;;17.44;54.92
16821;BME280;8527;49.740;6.604;2023-05-25T08:49:15;100562.25;;;16.96;55.21
16821;BME280;8527;49.740;6.604;2023-05-25T08:54:24;100572.38;;;17.15;55.64
16821;BME280;8527;49.740;6.604;2023-05-25T08:59:34;100561.28;;;16.82;56.76
16821;BME280;8527;49.740;6.604;2023-05-25T09:04:35;100554.69;;;16.63;57.63
16821;BME280;8527;49.740;6.604;2023-05-25T09:09:39;100553.03;;;17.49;55.15
16821;BME280;8527;49.740;6.604;2023-05-25T09:14:40;100538.56;;;17.71;53.74
16821;BME280;8527;49.740;6.604;2023-05-25T09:19:40;100538.00;;;18.11;52.58
16821;BME280;8527;49.740;6.604;2023-05-25T09:24:39;100538.38;;;17.73;52.94
16821;BME280;8527;49.740;6.604;2023-05-25T09:29:41;100553.97;;;17.91;52.13
16821;BME280;8527;49.740;6.604;2023-05-25T09:34:42;100554.22;;;17.68;51.96
16821;BME280;8527;49.740;6.604;2023-05-25T09:39:40;100552.41;;;17.47;50.40
16821;BME280;8527;49.740;6.604;2023-05-25T09:44:42;100553.06;;;17.77;49.75
16821;BME280;8527;49.740;6.604;2023-05-25T09:49:46;100546.53;;;17.58;50.28
16821;BME280;8527;49.740;6.604;2023-05-25T09:54:45;100545.19;;;17.76;49.13
16821;BME280;8527;49.740;6.604;2023-05-25T09:59:46;100546.13;;;17.61;48.72
16821;BME280;8527;49.740;6.604;2023-05-25T10:04:47;100560.25;;;18.05;47.38
16821;BME280;8527;49.740;6.604;2023-05-25T10:09:50;100558.22;;;17.79;48.77
16821;BME280;8527;49.740;6.604;2023-05-25T10:14:55;100542.59;;;17.89;48.37
16821;BME280;8527;49.740;6.604;2023-05-25T10:19:58;100547.22;;;18.37;48.31
16821;BME280;8527;49.740;6.604;2023-05-25T10:25:07;100549.66;;;18.32;50.72
16821;BME280;8527;49.740;6.604;2023-05-25T10:30:13;100543.75;;;18.57;48.23
16821;BME280;8527;49.740;6.604;2023-05-25T10:35:16;100548.94;;;18.59;49.00
16821;BME280;8527;49.740;6.604;2023-05-25T10:40:15;100551.28;;;18.95;48.31
16821;BME280;8527;49.740;6.604;2023-05-25T10:45:25;100525.84;;;18.84;48.07
16821;BME280;8527;49.740;6.604;2023-05-25T10:50:34;100526.25;;;18.88;48.16
16821;BME280;8527;49.740;6.604;2023-05-25T10:55:42;100527.97;;;19.03;46.67
16821;BME280;8527;49.740;6.604;2023-05-25T11:01:00;100539.84;;;18.66;47.61
16821;BME280;8527;49.740;6.604;2023-05-25T11:05:58;100527.44;;;18.65;49.43
16821;BME280;8527;49.740;6.604;2023-05-25T11:11:00;100531.03;;;18.86;48.19
16821;BME280;8527;49.740;6.604;2023-05-25T11:16:33;100526.75;;;19.12;47.73
16821;BME280;8527;49.740;6.604;2023-05-25T11:21:42;100516.53;;;19.68;46.03
16821;BME280;8527;49.740;6.604;2023-05-25T11:26:54;100520.75;;;19.30;47.13
16821;BME280;8527;49.740;6.604;2023-05-25T11:31:55;100520.03;;;18.88;47.05
16821;BME280;8527;49.740;6.604;2023-05-25T11:36:58;100507.63;;;18.93;46.33
16821;BME280;8527;49.740;6.604;2023-05-25T11:42:04;100514.66;;;18.81;46.80
16821;BME280;8527;49.740;6.604;2023-05-25T11:47:09;100503.56;;;19.18;46.72
16821;BME280;8527;49.740;6.604;2023-05-25T11:52:17;100516.09;;;18.70;46.15
16821;BME280;8527;49.740;6.604;2023-05-25T11:57:23;100499.41;;;19.35;46.43
16821;BME280;8527;49.740;6.604;2023-05-25T12:02:26;100497.75;;;19.07;48.08
16821;BME280;8527;49.740;6.604;2023-05-25T12:07:29;100490.28;;;19.43;47.17
16821;BME280;8527;49.740;6.604;2023-05-25T12:12:36;100472.72;;;19.40;45.91
16821;BME280;8527;49.740;6.604;2023-05-25T12:17:39;100476.91;;;20.02;44.41
16821;BME280;8527;49.740;6.604;2023-05-25T12:22:38;100470.31;;;19.78;46.04
16821;BME280;8527;49.740;6.604;2023-05-25T12:27:40;100461.91;;;20.20;46.46
16821;BME280;8527;49.740;6.604;2023-05-25T12:32:58;100456.63;;;19.86;44.86
16821;BME280;8527;49.740;6.604;2023-05-25T12:38:10;100457.06;;;19.96;44.37
16821;BME280;8527;49.740;6.604;2023-05-25T12:43:12;100446.06;;;19.98;44.87
16821;BME280;8527;49.740;6.604;2023-05-25T12:48:14;100469.00;;;20.07;44.22
16821;BME280;8527;49.740;6.604;2023-05-25T12:53:12;100448.09;;;20.03;44.82
16821;BME280;8527;49.740;6.604;2023-05-25T12:58:27;100461.22;;;20.31;43.66
16821;BME280;8527;49.740;6.604;2023-05-25T13:03:28;100445.72;;;20.27;43.92
16821;BME280;8527;49.740;6.604;2023-05-25T13:08:31;100444.91;;;20.26;44.96
16821;BME280;8527;49.740;6.604;2023-05-25T13:13:29;100451.72;;;20.61;44.43
16821;BME280;8527;49.740;6.604;2023-05-25T13:18:30;100447.19;;;20.22;45.89
16821;BME280;8527;49.740;6.604;2023-05-25T13:23:29;100450.25;;;20.33;43.78
16821;BME280;8527;49.740;6.604;2023-05-25T13:28:27;100439.44;;;20.65;44.59
16821;BME280;8527;49.740;6.604;2023-05-25T13:33:26;100432.69;;;20.56;45.80
16821;BME280;8527;49.740;6.604;2023-05-25T13:38:27;100436.66;;;20.53;44.46
16821;BME280;8527;49.740;6.604;2023-05-25T13:43:31;100439.59;;;20.77;44.60
16821;BME280;8527;49.740;6.604;2023-05-25T13:48:29;100433.56;;;20.49;45.01
16821;BME280;8527;49.740;6.604;2023-05-25T13:53:31;100434.16;;;20.51;43.23
16821;BME280;8527;49.740;6.604;2023-05-25T13:58:37;100430.69;;;20.44;44.95
16821;BME280;8527;49.740;6.604;2023-05-25T14:03:36;100433.94;;;20.53;45.95
16821;BME280;8527;49.740;6.604;2023-05-25T14:08:40;100430.13;;;20.67;43.89
16821;BME280;8527;49.740;6.604;2023-05-25T14:13:39;100442.28;;;20.77;44.87
16821;BME280;8527;49.740;6.604;2023-05-25T14:18:37;100428.72;;;20.90;44.22
16821;BME280;8527;49.740;6.604;2023-05-25T14:23:44;100431.56;;;20.96;44.28
16821;BME280;8527;49.740;6.604;2023-05-25T14:28:42;100406.25;;;20.97;43.86
16821;BME280;8527;49.740;6.604;2023-05-25T14:33:48;100412.88;;;21.01;44.52
16821;BME280;8527;49.740;6.604;2023-05-25T14:38:52;100404.91;;;20.87;43.97
16821;BME280;8527;49.740;6.604;2023-05-25T14:43:51;100401.25;;;21.00;43.88
16821;BME280;8527;49.740;6.604;2023-05-25T14:48:49;100411.16;;;21.06;43.24
16821;BME280;8527;49.740;6.604;2023-05-25T14:53:47;100407.41;;;21.26;43.82
16821;BME280;8527;49.740;6.604;2023-05-25T14:58:53;100412.34;;;21.11;43.97
16821;BME280;8527;49.740;6.604;2023-05-25T15:03:54;100390.97;;;21.09;44.38
16821;BME280;8527;49.740;6.604;2023-05-25T15:08:59;100397.59;;;21.13;42.74
16821;BME280;8527;49.740;6.604;2023-05-25T15:14:02;100396.28;;;20.97;44.36
16821;BME280;8527;49.740;6.604;2023-05-25T15:19:01;100394.41;;;20.98;43.62
16821;BME280;8527;49.740;6.604;2023-05-25T15:24:01;100403.84;;;21.32;42.64
16821;BME280;8527;49.740;6.604;2023-05-25T15:29:03;100394.19;;;20.99;43.83
16821;BME280;8527;49.740;6.604;2023-05-25T15:34:04;100403.06;;;21.06;43.21
16821;BME280;8527;49.740;6.604;2023-05-25T15:39:03;100384.84;;;21.20;44.99
16821;BME280;8527;49.740;6.604;2023-05-25T15:44:05;100383.88;;;21.15;44.51
16821;BME280;8527;49.740;6.604;2023-05-25T15:49:09;100383.03;;;20.96;44.97
16821;BME280;8527;49.740;6.604;2023-05-25T15:54:13;100383.22;;;21.19;44.67
16821;BME280;8527;49.740;6.604;2023-05-25T15:59:15;100389.69;;;20.93;44.55
16821;BME280;8527;49.740;6.604;2023-05-25T16:04:16;100373.59;;;21.05;45.40
16821;BME280;8527;49.740;6.604;2023-05-25T16:09:15;100387.81;;;20.93;46.72
16821;BME280;8527;49.740;6.604;2023-05-25T16:14:16;100378.41;;;21.21;44.21
16821;BME280;8527;49.740;6.604;2023-05-25T16:19:14;100382.81;;;20.97;44.06
16821;BME280;8527;49.740;6.604;2023-05-25T16:24:21;100381.44;;;20.88;46.63
16821;BME280;8527;49.740;6.604;2023-05-25T16:29:22;100377.31;;;20.85;46.96
16821;BME280;8527;49.740;6.604;2023-05-25T16:34:25;100381.69;;;20.86;45.86
16821;BME280;8527;49.740;6.604;2023-05-25T16:39:24;100389.50;;;21.13;45.67
16821;BME280;8527;49.740;6.604;2023-05-25T16:44:25;100388.72;;;20.87;46.39
16821;BME280;8527;49.740;6.604;2023-05-25T16:49:29;100392.00;;;20.89;45.75
16821;BME280;8527;49.740;6.604;2023-05-25T16:54:27;100379.34;;;20.90;46.67
16821;BME280;8527;49.740;6.604;2023-05-25T16:59:31;100383.94;;;20.57;47.34
16821;BME280;8527;49.740;6.604;2023-05-25T17:04:30;100368.22;;;20.54;47.25
16821;BME280;8527;49.740;6.604;2023-05-25T17:09:29;100373.41;;;20.56;46.79
16821;BME280;8527;49.740;6.604;2023-05-25T17:14:34;100364.31;;;20.50;47.87
16821;BME280;8527;49.740;6.604;2023-05-25T17:19:32;100373.69;;;20.41;48.18
16821;BME280;8527;49.740;6.604;2023-05-25T17:24:30;100372.72;;;20.60;47.18
16821;BME280;8527;49.740;6.604;2023-05-25T17:29:31;100367.41;;;20.47;47.86
16821;BME280;8527;49.740;6.604;2023-05-25T17:34:32;100363.53;;;20.43;48.54
16821;BME280;8527;49.740;6.604;2023-05-25T17:39:31;100369.63;;;20.31;48.23
16821;BME280;8527;49.740;6.604;2023-05-25T17:44:34;100370.22;;;20.33;48.76
16821;BME280;8527;49.740;6.604;2023-05-25T17:49:36;100377.13;;;20.22;49.76
16821;BME280;8527;49.740;6.604;2023-05-25T17:54:34;100378.66;;;20.12;49.75
16821;BME280;8527;49.740;6.604;2023-05-25T17:59:35;100384.41;;;20.15;50.29
16821;BME280;8527;49.740;6.604;2023-05-25T18:04:36;100381.88;;;20.27;50.07
16821;BME280;8527;49.740;6.604;2023-05-25T18:09:37;100380.44;;;20.24;49.53
16821;BME280;8527;49.740;6.604;2023-05-25T18:14:38;100386.66;;;20.25;50.94
16821;BME280;8527;49.740;6.604;2023-05-25T18:19:37;100392.50;;;20.15;51.61
16821;BME280;8527;49.740;6.604;2023-05-25T18:24:35;100394.44;;;20.08;52.52
16821;BME280;8527;49.740;6.604;2023-05-25T18:29:33;100396.75;;;19.91;52.58
16821;BME280;8527;49.740;6.604;2023-05-25T18:34:37;100402.44;;;19.69;54.03
16821;BME280;8527;49.740;6.604;2023-05-25T18:39:35;100416.97;;;19.54;54.91
16821;BME280;8527;49.740;6.604;2023-05-25T18:44:34;100428.41;;;19.30;55.60
16821;BME280;8527;49.740;6.604;2023-05-25T18:49:37;100435.03;;;19.34;56.40
16821;BME280;8527;49.740;6.604;2023-05-25T18:54:35;100437.75;;;19.00;56.91
16821;BME280;8527;49.740;6.604;2023-05-25T18:59:41;100448.69;;;18.72;57.76
16821;BME280;8527;49.740;6.604;2023-05-25T19:04:44;100448.63;;;18.45;57.84
16821;BME280;8527;49.740;6.604;2023-05-25T19:09:43;100460.78;;;18.27;58.23
16821;BME280;8527;49.740;6.604;2023-05-25T19:14:42;100469.34;;;18.02;58.14
16821;BME280;8527;49.740;6.604;2023-05-25T19:19:44;100472.41;;;17.92;57.94
16821;BME280;8527;49.740;6.604;2023-05-25T19:24:42;100475.66;;;17.81;59.08
16821;BME280;8527;49.740;6.604;2023-05-25T19:29:41;100473.72;;;17.68;58.09
16821;BME280;8527;49.740;6.604;2023-05-25T19:34:43;100485.47;;;17.67;58.48
16821;BME280;8527;49.740;6.604;2023-05-25T19:39:43;100501.66;;;17.45;58.89
16821;BME280;8527;49.740;6.604;2023-05-25T19:44:42;100504.38;;;17.23;58.99
16821;BME280;8527;49.740;6.604;2023-05-25T19:49:43;100518.53;;;17.17;59.24
16821;BME280;8527;49.740;6.604;2023-05-25T19:54:42;100528.06;;;17.20;58.12
16821;BME280;8527;49.740;6.604;2023-05-25T19:59:46;100544.44;;;16.88;58.47
16821;BME280;8527;49.740;6.604;2023-05-25T20:04:49;100545.06;;;16.90;58.51
16821;BME280;8527;49.740;6.604;2023-05-25T20:09:51;100559.53;;;16.74;59.15
16821;BME280;8527;49.740;6.604;2023-05-25T20:14:50;100557.44;;;16.69;59.91
16821;BME280;8527;49.740;6.604;2023-05-25T20:19:51;100556.44;;;16.55;60.21
16821;BME280;8527;49.740;6.604;2023-05-25T20:24:51;100565.44;;;16.48;60.49
16821;BME280;8527;49.740;6.604;2023-05-25T20:29:52;100566.00;;;16.28;61.56
16821;BME280;8527;49.740;6.604;2023-05-25T20:34:58;100571.16;;;16.44;61.89
16821;BME280;8527;49.740;6.604;2023-05-25T20:39:57;100574.31;;;16.33;61.65
16821;BME280;8527;49.740;6.604;2023-05-25T20:45:02;100581.16;;;16.21;62.33
16821;BME280;8527;49.740;6.604;2023-05-25T20:50:08;100601.44;;;16.00;62.75
16821;BME280;8527;49.740;6.604;2023-05-25T20:55:07;100602.00;;;15.95;62.70
16821;BME280;8527;49.740;6.604;2023-05-25T21:00:12;100594.47;;;15.75;63.92
16821;BME280;8527;49.740;6.604;2023-05-25T21:05:13;100597.78;;;15.78;63.46
16821;BME280;8527;49.740;6.604;2023-05-25T21:10:12;100604.06;;;15.70;64.32
16821;BME280;8527;49.740;6.604;2023-05-25T21:15:11;100600.31;;;15.56;64.54
16821;BME280;8527;49.740;6.604;2023-05-25T21:20:15;100607.44;;;15.64;64.11
16821;BME280;8527;49.740;6.604;2023-05-25T21:25:14;100612.19;;;15.53;64.68
16821;BME280;8527;49.740;6.604;2023-05-25T21:30:18;100615.31;;;15.18;65.55
16821;BME280;8527;49.740;6.604;2023-05-25T21:35:21;100621.44;;;15.27;65.27
16821;BME280;8527;49.740;6.604;2023-05-25T21:40:20;100628.06;;;15.08;66.57
16821;BME280;8527;49.740;6.604;2023-05-25T21:45:21;100623.38;;;15.10;65.96
16821;BME280;8527;49.740;6.604;2023-05-25T21:50:28;100635.00;;;14.94;66.36
16821;BME280;8527;49.740;6.604;2023-05-25T21:55:30;100635.06;;;14.77;67.07
16821;BME280;8527;49.740;6.604;2023-05-25T22:00:29;100638.94;;;14.67;67.31
16821;BME280;8527;49.740;6.604;2023-05-25T22:05:30;100627.41;;;14.66;67.67
16821;BME280;8527;49.740;6.604;2023-05-25T22:10:29;100628.13;;;14.60;67.72
16821;BME280;8527;49.740;6.604;2023-05-25T22:15:30;100634.19;;;14.45;68.42
16821;BME280;8527;49.740;6.604;2023-05-25T22:20:31;100633.47;;;14.52;67.86
16821;BME280;8527;49.740;6.604;2023-05-25T22:25:32;100636.72;;;14.39;68.51
16821;BME280;8527;49.740;6.604;2023-05-25T22:30:31;100630.66;;;14.45;68.41
16821;BME280;8527;49.740;6.604;2023-05-25T22:35:35;100630.00;;;14.51;68.68
16821;BME280;8527;49.740;6.604;2023-05-25T22:40:33;100641.25;;;14.21;69.33
16821;BME280;8527;49.740;6.604;2023-05-25T22:45:32;100636.91;;;14.20;69.79
16821;BME280;8527;49.740;6.604;2023-05-25T22:50:30;100630.28;;;14.00;70.30
16821;BME280;8527;49.740;6.604;2023-05-25T22:55:40;100642.16;;;13.89;70.98
16821;BME280;8527;49.740;6.604;2023-05-25T23:00:38;100647.13;;;14.00;70.45
16821;BME280;8527;49.740;6.604;2023-05-25T23:05:36;100639.63;;;13.87;71.11
16821;BME280;8527;49.740;6.604;2023-05-25T23:10:43;100638.50;;;13.73;71.56
16821;BME280;8527;49.740;6.604;2023-05-25T23:15:41;100630.97;;;13.85;70.98
16821;BME280;8527;49.740;6.604;2023-05-25T23:20:42;100634.31;;;13.71;71.67
16821;BME280;8527;49.740;6.604;2023-05-25T23:25:43;100633.31;;;13.72;71.65
16821;BME280;8527;49.740;6.604;2023-05-25T23:30:44;100640.66;;;13.53;72.47
16821;BME280;8527;49.740;6.604;2023-05-25T23:35:51;100629.31;;;13.68;72.25
16821;BME280;8527;49.740;6.604;2023-05-25T23:40:57;100626.16;;;13.64;71.92
16821;BME280;8527;49.740;6.604;2023-05-25T23:45:58;100630.31;;;13.50;72.72
16821;BME280;8527;49.740;6.604;2023-05-25T23:50:56;100621.94;;;13.28;74.02
16821;BME280;8527;49.740;6.604;2023-05-25T23:55:58;100625.75;;;13.17;74.37
